Portada
METAR-TAF:

METAR-TAF

Aeroports :

Malakal, Sudan

latitud: 09-33N, longitud: 031-39E, altitud: 387 m

METAR: manca

Hora: 10:44 (08:44 UTC)

Pronòstic

L'informe es va fer fa 3 hores i 14 minuts, a les 05:30 UTC
Pronòstic vàlid del 19 a les 06 UTC al 20 a les 12 UTC
Vent 5 kt del Oest
Visibilitat 10 km o més
Cel ennuvolat a una alçada de 4000 ft
Cel ennuvolat a una alçada de 14000 ft
Probabilitat 30% :
Temporalment
l' 19 a les 09 UTC al 19 a les 15 UTC
Vent 5 kt del Oest/Sud-Oest
Visibilitat: 4000 m
Escasses núvols a una alçada de 4500 ft, Cumulonimbus.
Cel ennuvolat a una alçada de 9000 ft
tempesta, pluja

TAF: HSSM 190530Z 1906/2012 27005KT 9999 BKN040 BKN140 PROB30 TEMPO 1909/1915 25005KT 4000 TSRA FEW045CB BKN090

Observacions i pronòstics meteorològics de més de 4000 aeroports (METAR i TAF).

Les estacions disponibles són els punts grocs i vermells al mapa.

Posi el ratolí al punt desitjat per veure el nom de l'estació.

Feu clic per veure les observacions i els pronòstics meteorològics.

Per canviar el mapa: feu clic els botons verds amb una creu de color negre per apropar; al botó verd amb un guió per allunyar la imatge; o en les fletxes verdes per a mapes adjacents.


METAR-TAF: